createdAt,value
2018-12-29T00:05:18.540Z,38.40
2018-12-29T00:08:08.998Z,40.10
2018-12-29T00:10:52.062Z,33.93
2018-12-29T00:13:42.567Z,32.10
2018-12-29T00:16:25.449Z,22.77
2018-12-29T00:19:18.001Z,27.20
2018-12-29T00:22:01.607Z,27.63
2018-12-29T00:24:52.125Z,27.80
2018-12-29T00:27:35.345Z,26.93
2018-12-29T00:30:25.867Z,24.20
2018-12-29T00:33:09.136Z,24.53
2018-12-29T00:35:59.611Z,21.90
2018-12-29T00:38:43.029Z,25.87
2018-12-29T00:41:24.620Z,27.47
2018-12-29T00:44:08.060Z,26.30
2018-12-29T00:46:58.537Z,28.03
2018-12-29T00:49:42.068Z,29.00
2018-12-29T00:52:33.582Z,31.10
2018-12-29T00:55:17.293Z,29.07
2018-12-29T00:58:07.828Z,30.20
2018-12-29T01:00:51.346Z,31.63
2018-12-29T01:03:42.756Z,26.33
2018-12-29T01:06:25.743Z,26.83
2018-12-29T01:09:16.268Z,25.43
2018-12-29T01:11:59.763Z,26.40
2018-12-29T01:14:50.228Z,27.17
2018-12-29T01:17:35.139Z,23.90
2018-12-29T01:20:25.653Z,25.07
2018-12-29T01:23:09.018Z,21.77
2018-12-29T01:25:59.551Z,27.20
2018-12-29T01:28:43.136Z,23.97
2018-12-29T01:31:33.684Z,33.43
2018-12-29T01:34:16.438Z,24.67
2018-12-29T01:37:06.968Z,22.20
2018-12-29T01:39:50.318Z,22.10
2018-12-29T01:42:40.866Z,24.90
2018-12-29T01:45:23.926Z,26.33
2018-12-29T01:48:14.464Z,27.30
2018-12-29T01:50:57.746Z,22.63
2018-12-29T01:53:48.834Z,24.77
2018-12-29T01:56:30.352Z,23.27
2018-12-29T01:59:20.904Z,27.40
2018-12-29T02:02:04.192Z,26.63
2018-12-29T02:04:54.729Z,23.23
2018-12-29T02:07:38.094Z,24.60
2018-12-29T02:10:28.627Z,25.43
2018-12-29T02:13:11.899Z,27.87
2018-12-29T02:16:02.424Z,29.13
2018-12-29T02:18:45.698Z,27.73
2018-12-29T02:21:36.234Z,28.63
2018-12-29T02:24:19.472Z,36.50
2018-12-29T02:27:10.027Z,29.73
2018-12-29T02:29:51.625Z,34.13
2018-12-29T02:32:42.163Z,36.60
2018-12-29T02:35:25.368Z,38.40
2018-12-29T02:38:15.907Z,39.20
2018-12-29T02:41:00.702Z,36.97
2018-12-29T02:43:51.144Z,43.80
2018-12-29T02:46:34.518Z,43.33
2018-12-29T02:49:25.140Z,48.87
2018-12-29T02:52:09.571Z,48.97
2018-12-29T02:55:00.164Z,41.57
2018-12-29T02:57:41.714Z,55.07
2018-12-29T03:00:32.245Z,57.37
2018-12-29T03:03:15.462Z,49.97
2018-12-29T03:06:06.030Z,54.43
2018-12-29T03:08:49.290Z,57.57
2018-12-29T03:11:39.802Z,61.47
2018-12-29T03:14:21.356Z,55.03
2018-12-29T03:17:11.821Z,58.00
2018-12-29T03:19:55.329Z,55.80
2018-12-29T03:22:45.831Z,68.63
2018-12-29T03:25:29.400Z,54.47
2018-12-29T03:28:19.933Z,61.83
2018-12-29T03:31:03.001Z,66.20
2018-12-29T03:33:53.539Z,58.43
2018-12-29T03:36:37.081Z,46.73
2018-12-29T03:39:27.591Z,51.67
2018-12-29T03:42:10.843Z,47.73
2018-12-29T03:45:01.326Z,53.23
2018-12-29T03:47:44.683Z,48.67
2018-12-29T03:50:35.219Z,44.47
2018-12-29T03:53:18.482Z,46.67
2018-12-29T03:56:09.023Z,40.87
2018-12-29T03:58:51.813Z,40.27
2018-12-29T04:01:42.324Z,40.10
2018-12-29T04:04:25.711Z,47.20
2018-12-29T04:07:16.167Z,45.23
2018-12-29T04:09:59.540Z,39.73
2018-12-29T04:12:54.066Z,42.30
2018-12-29T04:15:37.616Z,48.27
2018-12-29T04:18:28.151Z,46.40
2018-12-29T04:21:11.411Z,41.93
2018-12-29T04:24:01.929Z,49.17
2018-12-29T04:26:45.199Z,45.47
2018-12-29T04:29:35.717Z,49.77
2018-12-29T04:32:19.259Z,51.63
2018-12-29T04:35:09.707Z,45.67
2018-12-29T04:37:52.666Z,47.50
2018-12-29T04:44:09.894Z,48.73
2018-12-29T04:46:52.574Z,42.57
2018-12-29T04:49:35.714Z,51.53
2018-12-29T04:52:26.279Z,47.07
2018-12-29T04:55:09.489Z,40.93
2018-12-29T04:57:59.962Z,51.20
2018-12-29T05:00:42.957Z,48.93
2018-12-29T05:03:33.490Z,42.20
2018-12-29T05:06:16.651Z,46.50
2018-12-29T05:09:27.417Z,47.93
2018-12-29T05:12:10.145Z,51.00
2018-12-29T05:15:00.676Z,47.13
2018-12-29T05:17:43.979Z,48.90
2018-12-29T05:20:34.525Z,41.63
2018-12-29T05:23:17.329Z,51.80
2018-12-29T05:26:07.845Z,43.73
2018-12-29T05:28:50.953Z,54.03
2018-12-29T05:31:41.486Z,50.10
2018-12-29T05:34:23.053Z,51.10
2018-12-29T05:37:14.488Z,41.00
2018-12-29T05:39:58.930Z,56.73
2018-12-29T05:42:49.457Z,50.63
2018-12-29T05:45:32.184Z,51.80
2018-12-29T05:48:22.719Z,51.80
2018-12-29T05:51:05.918Z,55.73
2018-12-29T05:53:56.430Z,56.17
2018-12-29T05:56:39.650Z,56.60
2018-12-29T05:59:30.174Z,61.67
2018-12-29T06:02:13.677Z,49.40
2018-12-29T06:05:04.263Z,51.23
2018-12-29T06:07:47.652Z,55.27
2018-12-29T06:10:38.188Z,52.17
2018-12-29T06:13:21.792Z,58.67
2018-12-29T06:16:12.308Z,50.50
2018-12-29T06:18:53.927Z,67.40
2018-12-29T06:21:44.537Z,58.00
2018-12-29T06:24:27.666Z,58.40
2018-12-29T06:27:18.192Z,49.50
2018-12-29T06:30:01.385Z,58.40
2018-12-29T06:32:51.945Z,56.33
2018-12-29T06:35:35.348Z,49.80
2018-12-29T06:38:25.872Z,48.90
2018-12-29T06:41:08.793Z,58.20
2018-12-29T06:43:59.329Z,53.23
2018-12-29T06:46:42.805Z,55.30
2018-12-29T06:49:33.372Z,52.70
2018-12-29T06:52:16.804Z,49.10
2018-12-29T06:55:07.343Z,57.37
2018-12-29T06:57:50.672Z,51.83
2018-12-29T07:00:41.186Z,54.40
2018-12-29T07:03:24.079Z,49.50
2018-12-29T07:06:14.601Z,50.50
2018-12-29T07:08:57.801Z,48.20
2018-12-29T07:11:48.252Z,51.27
2018-12-29T07:14:31.528Z,56.03
2018-12-29T07:17:22.083Z,65.30
2018-12-29T07:20:05.402Z,55.50
2018-12-29T07:22:55.938Z,52.03
2018-12-29T07:25:39.064Z,62.30
2018-12-29T07:28:29.621Z,50.97
2018-12-29T07:31:13.170Z,53.60
2018-12-29T07:33:56.254Z,54.93
2018-12-29T07:36:38.997Z,52.80
2018-12-29T07:39:29.520Z,63.90
2018-12-29T07:42:12.758Z,61.33
2018-12-29T07:45:04.238Z,55.50
2018-12-29T07:47:45.750Z,61.47
2018-12-29T07:50:36.276Z,66.37
2018-12-29T07:53:19.653Z,67.80
2018-12-29T07:56:10.204Z,56.13
2018-12-29T07:58:51.838Z,57.70
2018-12-29T08:01:42.378Z,60.10
2018-12-29T08:04:25.271Z,59.13
2018-12-29T08:07:15.780Z,64.07
2018-12-29T08:09:58.956Z,60.80
2018-12-29T08:12:49.483Z,56.37
2018-12-29T08:15:32.925Z,57.43
2018-12-29T08:18:23.462Z,59.60
2018-12-29T08:21:07.043Z,62.83
2018-12-29T08:23:57.576Z,62.17
2018-12-29T08:26:40.329Z,61.47
2018-12-29T08:29:30.861Z,56.57
2018-12-29T08:32:14.044Z,60.07
2018-12-29T08:34:56.914Z,61.07
2018-12-29T08:37:38.564Z,49.60
2018-12-29T08:40:29.091Z,50.80
2018-12-29T08:43:12.576Z,54.67
2018-12-29T08:46:03.016Z,53.27
2018-12-29T08:48:44.580Z,55.80
2018-12-29T08:51:35.096Z,50.77
2018-12-29T08:54:18.557Z,55.73
2018-12-29T08:57:09.167Z,54.47
2018-12-29T08:59:52.451Z,51.67
2018-12-29T09:02:42.996Z,52.30
2018-12-29T09:05:31.905Z,51.07
2018-12-29T09:08:22.449Z,51.97
2018-12-29T09:11:05.451Z,50.23
2018-12-29T09:13:55.982Z,63.97
2018-12-29T09:16:39.132Z,39.63
2018-12-29T09:19:29.636Z,46.20
2018-12-29T09:22:12.978Z,54.13
2018-12-29T09:25:03.515Z,44.17
2018-12-29T09:27:46.949Z,46.93
2018-12-29T09:30:38.198Z,51.23
2018-12-29T09:33:21.741Z,49.57
2018-12-29T09:36:03.241Z,45.03
2018-12-29T09:38:44.853Z,49.53
2018-12-29T09:41:35.357Z,46.03
2018-12-29T09:44:17.046Z,54.10
2018-12-29T09:46:48.537Z,67.93
2018-12-29T09:49:20.097Z,60.73
2018-12-29T09:51:51.716Z,48.70
2018-12-29T09:54:23.333Z,49.57
2018-12-29T09:56:54.788Z,54.10
2018-12-29T09:59:26.252Z,50.07
2018-12-29T10:01:57.721Z,50.37
2018-12-29T10:04:29.162Z,49.77
2018-12-29T10:07:00.690Z,55.43
2018-12-29T10:09:32.126Z,51.57
2018-12-29T10:12:03.597Z,48.30
2018-12-29T10:14:35.064Z,45.70
2018-12-29T10:17:06.522Z,51.13
2018-12-29T10:19:37.974Z,46.20
2018-12-29T10:22:09.496Z,45.47
2018-12-29T10:24:41.026Z,45.57
2018-12-29T10:27:12.499Z,51.73
2018-12-29T10:29:44.028Z,49.70
2018-12-29T10:32:16.581Z,49.90
2018-12-29T10:34:48.150Z,46.87
2018-12-29T10:37:19.659Z,47.47
2018-12-29T10:39:51.116Z,43.70
2018-12-29T10:42:22.601Z,50.37
2018-12-29T10:45:06.314Z,50.00
2018-12-29T10:47:57.030Z,49.40
2018-12-29T10:50:40.577Z,49.73
2018-12-29T10:53:31.271Z,57.43
2018-12-29T10:56:14.442Z,49.50
2018-12-29T11:02:11.534Z,45.60
2018-12-29T11:05:02.172Z,43.83
2018-12-29T11:07:45.564Z,46.73
2018-12-29T11:10:28.346Z,47.37
2018-12-29T11:13:18.886Z,44.03
2018-12-29T11:16:02.097Z,43.97
2018-12-29T11:22:12.678Z,43.77
2018-12-29T11:24:55.441Z,46.37
2018-12-29T11:27:38.354Z,44.47
2018-12-29T11:33:31.302Z,41.17
2018-12-29T11:36:14.998Z,41.97
2018-12-29T11:42:34.090Z,46.30
2018-12-29T11:45:24.717Z,46.47
2018-12-29T11:48:08.209Z,45.47
2018-12-29T11:50:51.821Z,40.77
2018-12-29T11:56:44.314Z,37.90
2018-12-29T11:59:34.867Z,42.80
2018-12-29T12:02:24.403Z,40.47
2018-12-29T12:08:30.571Z,44.77
2018-12-29T12:11:13.883Z,37.37
2018-12-29T12:13:57.733Z,31.83
2018-12-29T12:16:48.304Z,40.70
2018-12-29T12:19:31.543Z,41.63
2018-12-29T12:22:22.103Z,43.00
2018-12-29T12:25:03.781Z,45.80
2018-12-29T12:27:54.308Z,46.13
2018-12-29T12:30:37.757Z,51.27
2018-12-29T12:33:28.570Z,48.67
2018-12-29T12:36:11.860Z,40.00
2018-12-29T12:39:02.469Z,45.67
2018-12-29T12:41:53.207Z,58.10
2018-12-29T12:44:43.785Z,48.77
2018-12-29T12:47:47.277Z,38.80
2018-12-29T12:50:37.848Z,46.83
2018-12-29T12:53:21.424Z,44.70
2018-12-29T12:59:14.359Z,40.17
2018-12-29T13:05:08.793Z,40.73
2018-12-29T13:07:59.319Z,41.10
2018-12-29T13:10:42.377Z,41.07
2018-12-29T13:16:34.662Z,39.63
2018-12-29T13:19:28.625Z,37.20
2018-12-29T13:22:15.779Z,44.10
2018-12-29T13:25:06.302Z,39.63
2018-12-29T13:27:47.986Z,36.13
2018-12-29T13:30:38.593Z,37.30
2018-12-29T13:33:21.530Z,36.07
2018-12-29T13:36:05.421Z,35.83
2018-12-29T13:38:48.980Z,36.53
2018-12-29T13:41:39.576Z,39.20
2018-12-29T13:44:33.330Z,37.63
2018-12-29T13:47:23.886Z,34.80
2018-12-29T13:50:07.239Z,33.67
2018-12-29T13:52:57.754Z,39.10
2018-12-29T13:55:41.269Z,36.60
2018-12-29T13:58:32.780Z,39.97
2018-12-29T14:01:16.415Z,41.07
2018-12-29T14:04:06.952Z,41.57
2018-12-29T14:07:11.242Z,45.20
2018-12-29T14:10:01.809Z,45.37
2018-12-29T14:12:45.421Z,39.87
2018-12-29T14:15:35.958Z,40.03
2018-12-29T14:18:17.525Z,40.40
2018-12-29T14:24:10.458Z,42.60
2018-12-29T14:30:03.464Z,46.07
2018-12-29T14:32:54.087Z,48.23
2018-12-29T14:35:56.578Z,45.13
2018-12-29T14:38:47.090Z,42.43
2018-12-29T14:41:30.514Z,46.73
2018-12-29T14:44:20.975Z,44.83
2018-12-29T14:47:02.527Z,48.53
2018-12-29T14:49:53.068Z,46.40
2018-12-29T14:52:36.231Z,42.23
2018-12-29T14:55:26.771Z,45.80
2018-12-29T14:58:10.198Z,48.57
2018-12-29T15:01:00.798Z,46.50
2018-12-29T15:03:43.995Z,51.10
2018-12-29T15:06:34.574Z,47.77
2018-12-29T15:09:17.633Z,48.70
2018-12-29T15:12:08.501Z,54.00
2018-12-29T15:14:53.307Z,42.70
2018-12-29T15:17:43.902Z,47.07
2018-12-29T15:20:33.902Z,49.57
2018-12-29T15:23:24.749Z,45.17
2018-12-29T15:26:08.299Z,44.37
2018-12-29T15:28:58.774Z,55.53
2018-12-29T15:31:42.162Z,46.03
2018-12-29T15:34:32.732Z,38.00
2018-12-29T15:37:15.608Z,30.43
2018-12-29T15:40:06.236Z,35.33
2018-12-29T15:42:49.425Z,34.57
2018-12-29T15:45:39.922Z,38.00
2018-12-29T15:48:23.382Z,28.97
2018-12-29T16:12:47.003Z,41.23
2018-12-29T16:15:50.993Z,48.20
2018-12-29T16:18:41.833Z,46.50
2018-12-29T16:21:44.378Z,60.53
2018-12-29T16:24:35.291Z,52.93
2018-12-29T16:27:38.972Z,53.50
2018-12-29T16:30:29.582Z,51.93
2018-12-29T16:33:13.191Z,45.60
2018-12-29T16:35:54.861Z,50.90
2018-12-29T16:38:38.337Z,62.40
2018-12-29T16:41:22.107Z,39.90
2018-12-29T16:44:13.079Z,46.63
2018-12-29T16:46:56.387Z,47.90
2018-12-29T16:49:46.973Z,41.63
2018-12-29T16:52:37.225Z,47.30
2018-12-29T16:55:28.070Z,45.17
2018-12-29T16:58:32.199Z,43.40
2018-12-29T17:01:22.806Z,47.60
2018-12-29T17:04:05.691Z,45.07
2018-12-29T17:06:56.690Z,45.23
2018-12-29T17:10:00.256Z,50.23
2018-12-29T17:12:50.802Z,58.13
2018-12-29T17:15:34.224Z,60.20
2018-12-29T17:18:25.297Z,61.90
2018-12-29T17:21:08.382Z,61.43
2018-12-29T17:23:58.933Z,58.40
2018-12-29T17:26:42.322Z,62.90
2018-12-29T17:29:33.016Z,60.13
2018-12-29T17:32:14.744Z,53.00
2018-12-29T17:35:05.382Z,50.83
2018-12-29T17:37:48.796Z,41.10
2018-12-29T17:40:39.265Z,43.20
2018-12-29T17:43:22.764Z,49.73
2018-12-29T17:46:13.411Z,45.50
2018-12-29T17:48:55.216Z,37.73
2018-12-29T17:51:46.138Z,45.97
2018-12-29T17:54:29.179Z,48.53
2018-12-29T17:57:19.724Z,41.53
2018-12-29T18:00:02.550Z,39.13
2018-12-29T18:02:54.163Z,40.73
2018-12-29T18:05:37.175Z,47.70
2018-12-29T18:08:27.707Z,44.87
2018-12-29T18:11:11.226Z,40.43
2018-12-29T18:14:01.770Z,41.90
2018-12-29T18:16:45.287Z,46.23
2018-12-29T18:19:36.056Z,46.33
2018-12-29T18:22:38.378Z,46.97
2018-12-29T18:28:31.044Z,46.07
2018-12-29T18:31:21.595Z,48.83
2018-12-29T18:34:03.120Z,54.80
2018-12-29T18:36:53.744Z,43.77
2018-12-29T18:39:44.341Z,42.00
2018-12-29T18:42:27.168Z,44.13
2018-12-29T18:45:17.796Z,46.00
2018-12-29T18:48:00.804Z,42.27
2018-12-29T18:50:51.450Z,46.70
2018-12-29T18:53:34.309Z,51.27
2018-12-29T18:56:24.973Z,44.00
2018-12-29T18:59:07.460Z,51.43
2018-12-29T19:01:57.366Z,49.83
2018-12-29T19:04:42.682Z,50.77
2018-12-29T19:07:26.324Z,44.63
2018-12-29T19:10:16.886Z,40.57
2018-12-29T19:13:00.109Z,49.83
2018-12-29T19:15:50.652Z,46.20
2018-12-29T19:18:32.428Z,48.03
2018-12-29T19:21:22.983Z,41.07
2018-12-29T19:24:27.339Z,41.10
2018-12-29T19:30:20.178Z,44.10
2018-12-29T19:33:11.097Z,42.10
2018-12-29T19:35:54.597Z,48.73
2018-12-29T19:38:36.386Z,42.43
2018-12-29T19:41:26.869Z,53.17
2018-12-29T19:44:30.461Z,49.70
2018-12-29T19:47:21.143Z,48.10
2018-12-29T19:50:04.654Z,47.37
2018-12-29T19:52:55.237Z,51.67
2018-12-29T19:55:38.710Z,55.20
2018-12-29T19:58:29.298Z,60.80
2018-12-29T20:01:12.723Z,57.83
2018-12-29T20:04:03.305Z,55.17
2018-12-29T20:06:46.553Z,62.60
2018-12-29T20:09:29.649Z,56.23
2018-12-29T20:12:20.576Z,65.00
2018-12-29T20:15:04.084Z,69.53
2018-12-29T20:17:54.660Z,68.93
2018-12-29T20:20:37.753Z,72.47
2018-12-29T20:23:28.363Z,65.63
2018-12-29T20:26:11.706Z,68.63
2018-12-29T20:29:02.252Z,67.90
2018-12-29T20:31:45.772Z,60.17
2018-12-29T20:34:36.276Z,63.57
2018-12-29T20:37:19.152Z,70.13
2018-12-29T20:40:02.037Z,67.90
2018-12-29T20:42:52.685Z,67.33
2018-12-29T20:45:36.088Z,68.30
2018-12-29T20:48:29.056Z,63.17
2018-12-29T20:51:12.342Z,75.73
2018-12-29T20:54:02.919Z,74.77
2018-12-29T20:56:46.055Z,73.90
2018-12-29T20:59:36.668Z,78.37
2018-12-29T21:02:18.333Z,69.80
2018-12-29T21:05:08.885Z,71.93
2018-12-29T21:07:52.039Z,65.90
2018-12-29T21:10:34.813Z,66.93
2018-12-29T21:13:25.363Z,68.13
2018-12-29T21:16:09.794Z,69.27
2018-12-29T21:21:50.660Z,67.70
2018-12-29T21:24:22.105Z,65.87
2018-12-29T21:26:53.526Z,64.27
2018-12-29T21:29:25.065Z,64.57
2018-12-29T21:31:58.138Z,63.77
2018-12-29T21:34:48.671Z,72.63
2018-12-29T21:37:31.582Z,73.93
2018-12-29T21:40:14.950Z,68.50
2018-12-29T21:42:58.538Z,66.57
2018-12-29T21:45:49.072Z,70.20
2018-12-29T21:48:30.662Z,61.37
2018-12-29T21:51:21.219Z,74.20
2018-12-29T21:54:04.572Z,70.57
2018-12-29T21:56:55.105Z,66.20
2018-12-29T21:59:38.651Z,76.23
2018-12-29T22:31:25.643Z,75.53
2018-12-29T22:34:16.157Z,62.90
2018-12-29T22:36:59.202Z,67.80
2018-12-29T22:39:42.993Z,65.30
2018-12-29T22:42:36.645Z,74.40
2018-12-29T22:50:59.269Z,76.80
2018-12-29T22:53:42.039Z,63.10
2018-12-29T22:59:11.487Z,66.20
2018-12-29T23:05:07.994Z,66.63
2018-12-29T23:10:33.239Z,61.43
2018-12-29T23:13:18.782Z,59.27
2018-12-29T23:16:01.103Z,64.33
2018-12-29T23:18:43.428Z,66.07
2018-12-29T23:21:29.733Z,68.67
2018-12-29T23:24:12.607Z,63.30
2018-12-29T23:26:53.731Z,75.70
2018-12-29T23:29:36.602Z,65.10
2018-12-29T23:32:20.551Z,79.70
2018-12-29T23:35:04.454Z,64.67
2018-12-29T23:37:46.989Z,64.37
2018-12-29T23:40:29.685Z,66.60
2018-12-29T23:43:12.074Z,64.67
2018-12-29T23:46:02.607Z,76.60
2018-12-29T23:48:52.308Z,59.43
2018-12-29T23:51:34.519Z,68.37
2018-12-29T23:54:16.570Z,58.53
2018-12-29T23:57:05.974Z,60.23
2018-12-29T23:59:48.685Z,63.67
